createdAt,value
2023-02-17T00:02:18.146Z,1.63
2023-02-17T00:04:46.456Z,1.53
2023-02-17T00:07:14.770Z,2.30
2023-02-17T00:09:43.106Z,1.63
2023-02-17T00:12:11.424Z,2.50
2023-02-17T00:14:41.861Z,2.33
2023-02-17T00:17:10.166Z,1.73
2023-02-17T00:19:38.497Z,1.37
2023-02-17T00:22:06.792Z,2.33
2023-02-17T00:24:35.115Z,1.67
2023-02-17T00:27:03.371Z,1.63
2023-02-17T00:29:31.684Z,3.50
2023-02-17T00:32:01.528Z,0.87
2023-02-17T00:34:29.872Z,2.40
2023-02-17T00:36:58.171Z,1.73
2023-02-17T00:39:26.456Z,1.90
2023-02-17T00:41:54.757Z,2.83
2023-02-17T00:44:23.627Z,1.07
2023-02-17T00:46:51.956Z,2.17
2023-02-17T00:49:22.458Z,1.13
2023-02-17T00:51:50.752Z,0.80
2023-02-17T00:54:19.085Z,2.77
2023-02-17T00:56:47.498Z,2.03
2023-02-17T00:59:15.842Z,1.27
2023-02-17T01:01:44.139Z,1.13
2023-02-17T01:04:12.430Z,1.00
2023-02-17T01:06:42.185Z,1.03
2023-02-17T01:09:10.924Z,2.53
2023-02-17T01:11:39.206Z,2.70
2023-02-17T01:14:07.625Z,1.70
2023-02-17T01:16:36.369Z,1.10
2023-02-17T01:19:04.918Z,1.43
2023-02-17T01:21:33.389Z,3.03
2023-02-17T01:24:04.630Z,2.27
2023-02-17T01:26:33.160Z,1.50
2023-02-17T01:29:01.436Z,3.37
2023-02-17T01:31:29.928Z,0.70
2023-02-17T01:33:58.468Z,1.00
2023-02-17T01:36:26.928Z,1.10
2023-02-17T01:38:55.249Z,1.03
2023-02-17T01:41:26.839Z,1.00
2023-02-17T01:44:08.386Z,1.73
2023-02-17T01:46:36.800Z,0.97
2023-02-17T01:49:05.269Z,2.13
2023-02-17T01:51:34.672Z,1.57
2023-02-17T01:54:03.872Z,1.77
2023-02-17T01:56:33.545Z,1.63
2023-02-17T01:59:02.361Z,1.23
2023-02-17T02:01:30.660Z,1.73
2023-02-17T02:03:58.952Z,1.13
2023-02-17T02:06:27.594Z,1.40
2023-02-17T02:08:56.741Z,1.83
2023-02-17T02:11:25.061Z,2.87
2023-02-17T02:13:54.776Z,1.30
2023-02-17T02:16:24.977Z,1.43
2023-02-17T02:18:55.436Z,2.30
2023-02-17T02:21:53.713Z,1.37
2023-02-17T02:24:30.145Z,3.00
2023-02-17T02:27:13.431Z,2.97
2023-02-17T02:29:52.192Z,1.30
2023-02-17T02:32:28.686Z,1.03
2023-02-17T02:34:57.245Z,0.87
2023-02-17T02:37:26.455Z,1.00
2023-02-17T02:39:54.775Z,2.40
2023-02-17T02:42:23.978Z,1.20
2023-02-17T02:44:52.430Z,3.03
2023-02-17T02:47:42.018Z,2.27
2023-02-17T02:50:10.836Z,2.93
2023-02-17T02:52:40.179Z,1.27
2023-02-17T02:55:09.587Z,0.70
2023-02-17T02:57:39.361Z,1.03
2023-02-17T03:00:10.772Z,2.13
2023-02-17T03:02:42.679Z,1.10
2023-02-17T03:05:12.219Z,1.13
2023-02-17T03:07:41.807Z,0.93
2023-02-17T03:10:10.260Z,2.20
2023-02-17T03:12:38.611Z,1.27
2023-02-17T03:15:08.147Z,1.57
2023-02-17T03:17:36.423Z,2.47
2023-02-17T03:20:06.334Z,1.10
2023-02-17T03:22:35.721Z,2.20
2023-02-17T03:25:04.081Z,2.57
2023-02-17T03:27:32.385Z,2.40
2023-02-17T03:30:00.764Z,1.37
2023-02-17T03:32:29.084Z,1.90
2023-02-17T03:34:57.420Z,1.53
2023-02-17T03:37:27.072Z,1.03
2023-02-17T03:39:55.343Z,2.67
2023-02-17T03:42:23.655Z,1.13
2023-02-17T03:44:51.991Z,0.90
2023-02-17T03:47:20.300Z,3.20
2023-02-17T03:49:48.623Z,1.10
2023-02-17T03:52:16.916Z,1.30
2023-02-17T03:54:46.598Z,1.90
2023-02-17T03:57:14.852Z,1.23
2023-02-17T03:59:43.160Z,1.13
2023-02-17T04:02:11.435Z,1.47
2023-02-17T04:04:39.764Z,0.80
2023-02-17T04:07:08.039Z,0.87
2023-02-17T04:09:36.320Z,2.03
2023-02-17T04:12:06.272Z,1.37
2023-02-17T04:14:34.559Z,1.10
2023-02-17T04:17:02.840Z,1.17
2023-02-17T04:19:31.197Z,1.50
2023-02-17T04:21:59.561Z,2.23
2023-02-17T04:24:27.845Z,5.07
2023-02-17T04:26:56.148Z,4.13
2023-02-17T04:29:25.771Z,1.00
2023-02-17T04:31:54.208Z,1.70
2023-02-17T04:34:22.556Z,2.90
2023-02-17T04:36:50.854Z,1.67
2023-02-17T04:39:19.152Z,2.60
2023-02-17T04:41:47.417Z,1.50
2023-02-17T04:44:15.744Z,0.87
2023-02-17T04:46:45.404Z,1.43
2023-02-17T04:49:13.689Z,1.10
2023-02-17T04:51:41.989Z,5.03
2023-02-17T04:54:10.277Z,1.23
2023-02-17T04:56:38.591Z,1.10
2023-02-17T04:59:06.899Z,2.10
2023-02-17T05:01:35.222Z,0.70
2023-02-17T05:04:05.052Z,1.10
2023-02-17T05:06:33.315Z,1.10
2023-02-17T05:09:01.625Z,1.27
2023-02-17T05:11:31.744Z,1.17
2023-02-17T05:14:00.046Z,1.00
2023-02-17T05:16:28.378Z,1.00
2023-02-17T05:18:56.691Z,1.27
2023-02-17T05:21:26.360Z,1.63
2023-02-17T05:23:54.608Z,1.03
2023-02-17T05:26:22.940Z,0.80
2023-02-17T05:28:51.282Z,1.23
2023-02-17T05:31:19.679Z,3.90
2023-02-17T05:33:48.065Z,0.73
2023-02-17T05:36:16.343Z,2.10
2023-02-17T05:38:49.226Z,0.77
2023-02-17T05:41:17.542Z,1.60
2023-02-17T05:43:45.858Z,2.50
2023-02-17T05:46:14.197Z,0.70
2023-02-17T05:48:42.700Z,1.67
2023-02-17T05:51:11.061Z,1.83
2023-02-17T05:53:39.401Z,1.17
2023-02-17T05:56:09.498Z,2.00
2023-02-17T05:58:37.823Z,1.50
2023-02-17T06:01:09.312Z,1.13
2023-02-17T06:03:37.664Z,2.63
2023-02-17T06:06:07.418Z,1.10
2023-02-17T06:08:35.949Z,1.43
2023-02-17T06:11:04.240Z,0.77
2023-02-17T06:13:33.899Z,1.63
2023-02-17T06:16:02.260Z,3.67
2023-02-17T06:18:30.669Z,1.83
2023-02-17T06:20:58.983Z,1.53
2023-02-17T06:23:27.550Z,1.00
2023-02-17T06:25:55.881Z,2.10
2023-02-17T06:28:24.139Z,6.90
2023-02-17T06:30:53.896Z,1.67
2023-02-17T06:33:22.196Z,2.37
2023-02-17T06:35:51.088Z,1.10
2023-02-17T06:38:19.473Z,1.50
2023-02-17T06:40:47.789Z,2.73
2023-02-17T06:43:16.070Z,1.07
2023-02-17T06:45:44.363Z,3.90
2023-02-17T06:48:14.005Z,1.03
2023-02-17T06:50:42.352Z,1.00
2023-02-17T06:53:10.909Z,3.83
2023-02-17T06:55:39.602Z,1.70
2023-02-17T06:58:08.383Z,2.13
2023-02-17T07:00:36.988Z,0.87
2023-02-17T07:03:05.447Z,1.33
2023-02-17T07:05:35.799Z,0.70
2023-02-17T07:08:04.243Z,1.17
2023-02-17T07:10:32.620Z,0.90
2023-02-17T07:13:00.921Z,0.60
2023-02-17T07:15:29.403Z,2.63
2023-02-17T07:17:58.001Z,1.10
2023-02-17T07:20:26.290Z,0.77
2023-02-17T07:22:56.230Z,1.87
2023-02-17T07:25:24.556Z,0.83
2023-02-17T07:27:52.833Z,1.93
2023-02-17T07:30:21.632Z,0.80
2023-02-17T07:32:49.959Z,0.70
2023-02-17T07:35:18.382Z,1.20
2023-02-17T07:37:46.707Z,0.87
2023-02-17T07:40:16.450Z,1.53
2023-02-17T07:42:44.725Z,2.37
2023-02-17T07:45:13.046Z,1.37
2023-02-17T07:47:41.362Z,0.60
2023-02-17T07:50:10.015Z,1.77
2023-02-17T07:52:38.308Z,0.87
2023-02-17T07:55:06.818Z,1.00
2023-02-17T07:57:36.794Z,0.70
2023-02-17T08:00:05.493Z,1.00
2023-02-17T08:02:33.789Z,0.60
2023-02-17T08:05:02.086Z,1.10
2023-02-17T08:07:30.373Z,2.23
2023-02-17T08:10:12.770Z,0.93
2023-02-17T08:13:00.241Z,1.73
2023-02-17T08:15:28.827Z,3.13
2023-02-17T08:17:57.355Z,0.77
2023-02-17T08:20:25.738Z,0.70
2023-02-17T08:22:54.213Z,1.27
2023-02-17T08:25:22.553Z,1.63
2023-02-17T08:27:52.226Z,2.30
2023-02-17T08:30:21.010Z,1.00
2023-02-17T08:32:49.645Z,0.80
2023-02-17T08:35:19.146Z,1.07
2023-02-17T08:37:47.569Z,0.70
2023-02-17T08:40:15.869Z,0.97
2023-02-17T08:42:44.192Z,1.07
2023-02-17T08:45:14.634Z,1.80
2023-02-17T08:47:42.891Z,1.83
2023-02-17T08:50:11.336Z,0.93
2023-02-17T08:52:39.662Z,0.63
2023-02-17T08:55:08.291Z,1.90
2023-02-17T08:57:36.606Z,0.70
2023-02-17T09:00:06.984Z,1.73
2023-02-17T09:02:37.625Z,0.80
2023-02-17T09:05:06.290Z,1.33
2023-02-17T09:07:34.635Z,0.87
2023-02-17T09:10:02.929Z,1.17
2023-02-17T09:12:31.181Z,0.63
2023-02-17T09:14:59.754Z,1.10
2023-02-17T09:17:28.020Z,0.90
2023-02-17T09:19:57.666Z,0.67
2023-02-17T09:22:32.094Z,1.10
2023-02-17T09:25:00.805Z,1.57
2023-02-17T09:27:29.220Z,1.37
2023-02-17T09:29:57.612Z,0.57
2023-02-17T09:32:26.034Z,1.90
2023-02-17T09:34:54.711Z,1.00
2023-02-17T09:37:24.852Z,0.93
2023-02-17T09:39:53.178Z,0.60
2023-02-17T09:42:22.144Z,0.97
2023-02-17T09:44:51.758Z,1.10
2023-02-17T09:47:20.621Z,1.37
2023-02-17T09:49:51.179Z,1.20
2023-02-17T09:52:19.889Z,3.03
2023-02-17T09:54:51.867Z,2.87
2023-02-17T09:57:20.817Z,1.77
2023-02-17T09:59:50.099Z,1.70
2023-02-17T10:02:19.653Z,1.20
2023-02-17T10:04:48.515Z,1.80
2023-02-17T10:07:18.006Z,1.93
2023-02-17T10:09:49.612Z,4.13
2023-02-17T10:12:19.713Z,1.50
2023-02-17T10:14:48.576Z,1.73
2023-02-17T10:17:18.234Z,1.23
2023-02-17T10:19:46.930Z,2.90
2023-02-17T10:22:16.114Z,3.87
2023-02-17T10:24:44.536Z,2.03
2023-02-17T10:27:39.934Z,2.30
2023-02-17T10:30:22.045Z,3.53
2023-02-17T10:32:53.070Z,3.93
2023-02-17T10:35:24.541Z,5.57
2023-02-17T10:37:54.860Z,2.80
2023-02-17T10:40:23.585Z,9.00
2023-02-17T10:42:52.634Z,4.43
2023-02-17T10:45:24.292Z,5.63
2023-02-17T10:47:52.769Z,6.27
2023-02-17T10:50:21.618Z,7.53
2023-02-17T10:52:50.613Z,3.20
2023-02-17T10:55:23.486Z,4.17
2023-02-17T10:57:53.779Z,4.93
2023-02-17T11:00:24.429Z,5.07
2023-02-17T11:02:52.893Z,5.67
2023-02-17T11:05:25.721Z,5.97
2023-02-17T11:07:56.830Z,5.67
2023-02-17T11:10:25.755Z,6.93
2023-02-17T11:12:55.865Z,3.60
2023-02-17T11:15:26.715Z,5.63
2023-02-17T11:17:55.031Z,3.73
2023-02-17T11:20:34.357Z,4.37
2023-02-17T11:23:06.951Z,7.30
2023-02-17T11:25:35.940Z,4.07
2023-02-17T11:28:04.631Z,5.03
2023-02-17T11:30:35.387Z,4.70
2023-02-17T11:33:12.991Z,6.50
2023-02-17T11:35:48.082Z,6.53
2023-02-17T11:38:17.528Z,4.13
2023-02-17T11:40:53.453Z,10.13
2023-02-17T11:43:21.881Z,4.23
2023-02-17T11:45:54.996Z,6.83
2023-02-17T11:48:30.050Z,8.37
2023-02-17T11:50:58.949Z,6.60
2023-02-17T11:53:28.495Z,5.97
2023-02-17T11:56:00.552Z,5.83
2023-02-17T11:58:31.588Z,5.53
2023-02-17T12:01:02.663Z,4.80
2023-02-17T12:03:51.989Z,5.23
2023-02-17T12:06:23.230Z,5.40
2023-02-17T12:08:57.698Z,3.80
2023-02-17T12:11:28.718Z,5.53
2023-02-17T12:13:59.325Z,4.40
2023-02-17T12:16:32.338Z,5.30
2023-02-17T12:19:03.570Z,7.73
2023-02-17T12:21:36.046Z,4.53
2023-02-17T12:24:07.440Z,5.80
2023-02-17T12:26:38.464Z,4.57
2023-02-17T12:29:17.106Z,7.43
2023-02-17T12:31:54.202Z,8.83
2023-02-17T12:34:24.036Z,4.23
2023-02-17T12:36:53.165Z,6.40
2023-02-17T12:39:22.557Z,5.47
2023-02-17T12:41:51.733Z,4.83
2023-02-17T12:44:20.632Z,4.87
2023-02-17T12:46:49.703Z,3.90
2023-02-17T12:49:20.969Z,6.63
2023-02-17T12:51:49.820Z,4.53
2023-02-17T12:54:19.745Z,5.30
2023-02-17T12:56:51.160Z,8.50
2023-02-17T12:59:19.710Z,5.43
2023-02-17T13:01:52.644Z,6.00
2023-02-17T13:04:23.399Z,5.70
2023-02-17T13:06:52.964Z,5.10
2023-02-17T13:09:23.925Z,6.13
2023-02-17T13:11:52.233Z,5.57
2023-02-17T13:14:26.841Z,5.17
2023-02-17T13:16:55.191Z,6.63
2023-02-17T13:19:31.037Z,4.83
2023-02-17T13:21:59.869Z,4.87
2023-02-17T13:24:37.898Z,8.57
2023-02-17T13:27:12.497Z,4.13
2023-02-17T13:29:42.077Z,9.67
2023-02-17T13:32:13.269Z,5.47
2023-02-17T13:34:43.714Z,4.60
2023-02-17T13:37:19.460Z,5.10
2023-02-17T13:39:47.806Z,4.63
2023-02-17T13:42:40.248Z,4.63
2023-02-17T13:45:16.125Z,6.23
2023-02-17T13:47:44.399Z,4.40
2023-02-17T13:53:21.442Z,6.23
2023-02-17T13:55:49.765Z,3.03
2023-02-17T13:58:23.187Z,3.23
2023-02-17T14:00:51.536Z,5.37
2023-02-17T14:03:22.272Z,3.20
2023-02-17T14:05:51.038Z,3.97
2023-02-17T14:08:21.791Z,2.93
2023-02-17T14:10:50.116Z,3.57
2023-02-17T14:13:18.718Z,4.47
2023-02-17T14:15:54.453Z,3.27
2023-02-17T14:18:32.978Z,3.57
2023-02-17T14:21:01.865Z,2.80
2023-02-17T14:23:41.544Z,4.20
2023-02-17T14:26:13.520Z,3.57
2023-02-17T14:28:41.951Z,4.00
2023-02-17T14:31:10.921Z,3.43
2023-02-17T14:33:39.631Z,3.63
2023-02-17T14:36:11.306Z,2.80
2023-02-17T14:38:41.975Z,2.87
2023-02-17T14:41:10.500Z,9.67
2023-02-17T14:43:39.018Z,2.97
2023-02-17T14:46:07.570Z,4.57
2023-02-17T14:48:36.102Z,2.30
2023-02-17T14:51:04.759Z,4.33
2023-02-17T14:53:33.742Z,3.07
2023-02-17T14:56:04.713Z,5.30
2023-02-17T14:58:33.488Z,7.07
2023-02-17T15:01:01.868Z,3.33
2023-02-17T15:03:30.161Z,6.03
2023-02-17T15:05:58.513Z,3.83
2023-02-17T15:08:34.910Z,2.80
2023-02-17T15:11:04.724Z,2.10
2023-02-17T15:13:33.033Z,2.03
2023-02-17T15:16:01.505Z,3.17
2023-02-17T15:18:29.813Z,5.53
2023-02-17T15:20:58.454Z,4.43
2023-02-17T15:23:26.785Z,2.97
2023-02-17T15:25:55.992Z,3.33
2023-02-17T15:28:25.682Z,3.90
2023-02-17T15:30:55.429Z,2.83
2023-02-17T15:33:23.849Z,4.97
2023-02-17T15:35:53.915Z,1.97
2023-02-17T15:38:22.302Z,1.33
2023-02-17T15:40:50.622Z,1.90
2023-02-17T15:43:19.759Z,1.63
2023-02-17T15:45:49.467Z,6.33
2023-02-17T15:48:19.932Z,2.10
2023-02-17T15:50:48.285Z,1.30
2023-02-17T15:53:16.712Z,5.07
2023-02-17T15:55:45.004Z,1.53
2023-02-17T15:58:16.649Z,2.67
2023-02-17T16:00:46.010Z,4.73
2023-02-17T16:03:15.766Z,2.00
2023-02-17T16:05:44.122Z,1.30
2023-02-17T16:08:12.474Z,1.83
2023-02-17T16:10:42.485Z,2.73
2023-02-17T16:13:12.063Z,1.50
2023-02-17T16:15:40.398Z,2.03
2023-02-17T16:18:09.517Z,1.77
2023-02-17T16:20:39.173Z,1.43
2023-02-17T16:23:07.500Z,1.50
2023-02-17T16:25:36.575Z,3.27
2023-02-17T16:28:04.873Z,1.83
2023-02-17T16:30:34.193Z,2.97
2023-02-17T16:33:02.639Z,4.33
2023-02-17T16:35:31.539Z,5.30
2023-02-17T16:38:02.140Z,2.60
2023-02-17T16:40:31.019Z,2.10
2023-02-17T16:42:59.985Z,5.27
2023-02-17T16:45:29.201Z,3.17
2023-02-17T16:47:58.365Z,2.77
2023-02-17T16:50:27.017Z,1.83
2023-02-17T16:52:55.843Z,3.53
2023-02-17T16:55:25.992Z,2.97
2023-02-17T16:57:54.294Z,2.97
2023-02-17T17:00:23.680Z,3.20
2023-02-17T17:02:52.028Z,3.13
2023-02-17T17:05:20.697Z,2.23
2023-02-17T17:07:49.102Z,1.50
2023-02-17T17:10:18.354Z,2.43
2023-02-17T17:12:48.146Z,1.97
2023-02-17T17:15:16.856Z,1.70
2023-02-17T17:17:46.237Z,1.37
2023-02-17T17:20:15.246Z,3.47
2023-02-17T17:22:43.553Z,1.87
2023-02-17T17:25:11.944Z,0.97
2023-02-17T17:27:41.601Z,2.27
2023-02-17T17:30:14.755Z,3.13
2023-02-17T17:32:43.164Z,1.77
2023-02-17T17:35:11.469Z,2.47
2023-02-17T17:37:39.826Z,1.23
2023-02-17T17:40:08.401Z,3.13
2023-02-17T17:42:37.647Z,3.80
2023-02-17T17:45:06.151Z,4.80
2023-02-17T17:47:35.811Z,1.83
2023-02-17T17:50:04.062Z,1.10
2023-02-17T17:52:32.487Z,0.87
2023-02-17T17:55:00.816Z,2.67
2023-02-17T17:57:29.194Z,2.37
2023-02-17T17:59:57.475Z,1.30
2023-02-17T18:02:25.804Z,1.27
2023-02-17T18:04:55.622Z,2.23
2023-02-17T18:07:23.984Z,2.33
2023-02-17T18:09:52.317Z,1.23
2023-02-17T18:12:20.732Z,2.57
2023-02-17T18:14:49.576Z,2.83
2023-02-17T18:17:18.848Z,1.50
2023-02-17T18:19:47.188Z,1.67
2023-02-17T18:22:17.329Z,1.87
2023-02-17T18:24:47.360Z,3.73
2023-02-17T18:27:15.714Z,2.33
2023-02-17T18:29:44.229Z,1.63
2023-02-17T18:32:12.567Z,0.87
2023-02-17T18:34:40.856Z,3.10
2023-02-17T18:37:09.341Z,0.80
2023-02-17T18:39:39.013Z,3.17
2023-02-17T18:42:07.577Z,2.60
2023-02-17T18:44:35.889Z,0.97
2023-02-17T18:47:04.213Z,1.57
2023-02-17T18:49:32.465Z,1.40
2023-02-17T18:52:00.785Z,0.70
2023-02-17T18:54:29.152Z,2.27
2023-02-17T18:56:58.811Z,2.40
2023-02-17T18:59:27.248Z,2.63
2023-02-17T19:01:55.529Z,1.30
2023-02-17T19:04:24.049Z,1.90
2023-02-17T19:06:52.344Z,1.70
2023-02-17T19:09:20.596Z,0.97
2023-02-17T19:11:48.899Z,2.20
2023-02-17T19:14:18.618Z,2.03
2023-02-17T19:16:46.894Z,6.93
2023-02-17T19:19:15.192Z,11.93
2023-02-17T19:21:43.685Z,9.43
2023-02-17T19:24:11.982Z,9.13
2023-02-17T19:26:40.317Z,8.83
2023-02-17T19:29:08.872Z,11.53
2023-02-17T19:31:38.619Z,9.83
2023-02-17T19:34:07.040Z,8.97
2023-02-17T19:36:35.480Z,4.60
2023-02-17T19:39:03.762Z,6.23
2023-02-17T19:41:34.402Z,10.53
2023-02-17T19:44:04.362Z,5.00
2023-02-17T19:46:32.705Z,4.90
2023-02-17T19:49:03.957Z,3.57
2023-02-17T19:51:32.529Z,7.60
2023-02-17T19:54:01.198Z,7.27
2023-02-17T19:56:30.547Z,3.87
2023-02-17T19:58:59.089Z,5.27
2023-02-17T20:01:28.098Z,7.47
2023-02-17T20:03:56.518Z,8.30
2023-02-17T20:06:26.990Z,3.73
2023-02-17T20:08:55.781Z,3.90
2023-02-17T20:11:24.154Z,4.17
2023-02-17T20:13:52.601Z,5.03
2023-02-17T20:16:21.032Z,4.23
2023-02-17T20:18:49.819Z,4.17
2023-02-17T20:21:18.870Z,3.43
2023-02-17T20:23:48.539Z,4.87
2023-02-17T20:26:17.387Z,2.63
2023-02-17T20:28:45.916Z,7.67
2023-02-17T20:31:14.353Z,5.27
2023-02-17T20:33:42.688Z,5.70
2023-02-17T20:36:11.796Z,4.20
2023-02-17T20:38:40.153Z,7.23
2023-02-17T20:41:10.039Z,3.57
2023-02-17T20:43:38.925Z,3.57
2023-02-17T20:46:08.009Z,7.67
2023-02-17T20:48:36.453Z,2.20
2023-02-17T20:51:05.866Z,4.43
2023-02-17T20:53:34.637Z,3.73
2023-02-17T20:56:02.996Z,3.10
2023-02-17T20:58:32.812Z,4.27
2023-02-17T21:01:01.136Z,6.57
2023-02-17T21:03:29.621Z,5.57
2023-02-17T21:05:58.147Z,3.63
2023-02-17T21:08:26.476Z,5.33
2023-02-17T21:10:54.750Z,3.83
2023-02-17T21:13:23.245Z,5.13
2023-02-17T21:15:52.951Z,4.47
2023-02-17T21:18:21.270Z,4.37
2023-02-17T21:20:50.093Z,6.50
2023-02-17T21:23:18.425Z,4.73
2023-02-17T21:25:46.858Z,6.20
2023-02-17T21:28:17.419Z,3.43
2023-02-17T21:30:47.381Z,4.10
2023-02-17T21:33:17.365Z,3.20
2023-02-17T21:35:45.688Z,3.73
2023-02-17T21:38:16.770Z,6.63
2023-02-17T21:40:45.327Z,5.57
2023-02-17T21:43:31.027Z,5.87
2023-02-17T21:45:59.551Z,8.80
2023-02-17T21:48:29.236Z,3.10
2023-02-17T21:51:05.141Z,4.40
2023-02-17T21:53:33.476Z,5.37
2023-02-17T21:56:01.901Z,5.83
2023-02-17T21:58:30.346Z,2.50
2023-02-17T22:00:58.658Z,8.20
2023-02-17T22:03:27.015Z,3.17
2023-02-17T22:05:57.537Z,5.20
2023-02-17T22:08:25.810Z,4.00
2023-02-17T22:10:54.106Z,6.83
2023-02-17T22:13:22.404Z,4.87
2023-02-17T22:15:58.283Z,4.57
2023-02-17T22:18:26.787Z,4.90
2023-02-17T22:20:55.072Z,5.43
2023-02-17T22:23:24.753Z,3.30
2023-02-17T22:25:53.328Z,4.80
2023-02-17T22:28:21.694Z,3.43
2023-02-17T22:30:52.101Z,3.93
2023-02-17T22:33:20.672Z,8.00
2023-02-17T22:35:49.016Z,3.57
2023-02-17T22:38:17.371Z,3.50
2023-02-17T22:40:47.209Z,4.33
2023-02-17T22:43:15.496Z,4.83
2023-02-17T22:45:43.897Z,5.47
2023-02-17T22:48:12.326Z,3.63
2023-02-17T22:50:40.614Z,5.97
2023-02-17T22:53:08.960Z,3.70
2023-02-17T22:55:37.563Z,7.70
2023-02-17T22:58:07.221Z,4.77
2023-02-17T23:00:35.550Z,5.03
2023-02-17T23:03:04.080Z,1.80
2023-02-17T23:05:32.379Z,3.93
2023-02-17T23:08:00.678Z,4.73
2023-02-17T23:10:29.435Z,3.20
2023-02-17T23:12:57.745Z,1.90
2023-02-17T23:15:39.914Z,8.00
2023-02-17T23:18:08.663Z,3.00
2023-02-17T23:20:37.195Z,3.13
2023-02-17T23:23:05.517Z,4.07
2023-02-17T23:25:33.842Z,2.53
2023-02-17T23:28:02.294Z,4.07
2023-02-17T23:30:32.163Z,2.73
2023-02-17T23:33:00.589Z,3.23
2023-02-17T23:35:28.868Z,2.93
2023-02-17T23:37:57.197Z,4.87
2023-02-17T23:40:25.478Z,3.23
2023-02-17T23:42:53.757Z,2.33
2023-02-17T23:45:22.107Z,3.20
2023-02-17T23:47:51.745Z,4.53
2023-02-17T23:50:20.226Z,1.87
2023-02-17T23:52:48.565Z,5.83
2023-02-17T23:55:16.895Z,2.43
2023-02-17T23:57:45.194Z,2.00
